createdAt,value
2023-02-01T00:01:01.085Z,22.45
2023-02-01T00:03:32.356Z,20.55
2023-02-01T00:06:12.085Z,25.20
2023-02-01T00:08:41.280Z,22.90
2023-02-01T00:11:12.409Z,23.15
2023-02-01T00:13:52.167Z,23.13
2023-02-01T00:19:04.580Z,21.65
2023-02-01T00:21:39.857Z,22.13
2023-02-01T00:24:09.917Z,21.27
2023-02-01T00:29:23.636Z,21.25
2023-02-01T00:31:53.943Z,21.05
2023-02-01T00:34:25.276Z,20.60
2023-02-01T00:36:54.773Z,18.13
2023-02-01T00:39:29.403Z,23.65
2023-02-01T00:41:58.612Z,23.50
2023-02-01T00:44:35.053Z,20.40
2023-02-01T00:47:09.288Z,22.02
2023-02-01T00:49:40.497Z,23.35
2023-02-01T00:52:09.658Z,20.45
2023-02-01T00:54:38.884Z,23.50
2023-02-01T00:57:13.928Z,23.13
2023-02-01T00:59:48.074Z,19.50
2023-02-01T01:02:17.314Z,22.60
2023-02-01T01:04:48.640Z,24.23
2023-02-01T01:07:22.955Z,20.90
2023-02-01T01:09:52.338Z,19.45
2023-02-01T01:12:21.546Z,18.88
2023-02-01T01:14:51.236Z,17.42
2023-02-01T01:17:21.477Z,20.15
2023-02-01T01:19:59.861Z,21.88
2023-02-01T01:22:29.876Z,21.35
2023-02-01T01:24:59.473Z,23.55
2023-02-01T01:27:28.700Z,20.70
2023-02-01T01:29:57.806Z,20.30
2023-02-01T01:32:27.121Z,18.70
2023-02-01T01:34:58.280Z,22.05
2023-02-01T01:37:27.462Z,20.90
2023-02-01T01:39:57.285Z,22.50
2023-02-01T01:42:26.747Z,21.05
2023-02-01T01:45:05.010Z,22.55
2023-02-01T01:47:50.054Z,20.67
2023-02-01T01:50:32.271Z,20.73
2023-02-01T01:53:05.340Z,20.67
2023-02-01T01:58:22.591Z,23.77
2023-02-01T02:00:52.014Z,21.13
2023-02-01T02:03:23.745Z,21.52
2023-02-01T02:06:08.379Z,19.25
2023-02-01T02:08:37.647Z,23.92
2023-02-01T02:11:11.046Z,22.55
2023-02-01T02:13:44.319Z,20.20
2023-02-01T02:17:00.191Z,22.27
2023-02-01T02:19:56.276Z,21.67
2023-02-01T02:22:57.505Z,22.48
2023-02-01T02:25:51.971Z,22.00
2023-02-01T02:28:49.419Z,22.67
2023-02-01T02:31:32.811Z,22.13
2023-02-01T02:34:14.568Z,26.63
2023-02-01T02:36:53.347Z,23.23
2023-02-01T02:39:33.928Z,25.77
2023-02-01T02:42:24.734Z,22.98
2023-02-01T02:45:18.969Z,23.25
2023-02-01T02:47:57.855Z,23.00
2023-02-01T02:53:57.048Z,22.02
2023-02-01T02:56:42.055Z,25.38
2023-02-01T02:59:27.160Z,23.23
2023-02-01T03:02:15.000Z,21.77
2023-02-01T03:04:45.591Z,26.15
2023-02-01T03:07:38.305Z,25.23
2023-02-01T03:10:12.947Z,30.25
2023-02-01T03:13:02.621Z,25.33
2023-02-01T03:15:38.863Z,24.20
2023-02-01T03:18:14.846Z,24.75
2023-02-01T03:20:47.648Z,26.15
2023-02-01T03:23:21.618Z,23.70
2023-02-01T03:25:53.633Z,26.23
2023-02-01T03:28:27.654Z,24.35
2023-02-01T03:30:57.900Z,26.58
2023-02-01T03:33:30.752Z,25.98
2023-02-01T03:36:10.500Z,24.23
2023-02-01T03:38:48.170Z,23.80
2023-02-01T03:41:25.850Z,23.70
2023-02-01T03:44:12.143Z,24.67
2023-02-01T03:46:45.284Z,24.88
2023-02-01T03:49:28.170Z,25.25
2023-02-01T03:51:59.554Z,23.75
2023-02-01T03:54:31.969Z,25.23
2023-02-01T03:57:09.616Z,24.15
2023-02-01T03:59:42.074Z,25.30
2023-02-01T04:02:11.615Z,26.77
2023-02-01T04:04:40.900Z,22.40
2023-02-01T04:07:17.600Z,22.63
2023-02-01T04:09:48.724Z,24.83
2023-02-01T04:12:17.922Z,25.30
2023-02-01T04:14:47.072Z,21.55
2023-02-01T04:17:16.147Z,22.45
2023-02-01T04:19:50.252Z,25.63
2023-02-01T04:22:19.610Z,24.48
2023-02-01T04:24:50.769Z,24.15
2023-02-01T04:27:26.475Z,23.42
2023-02-01T04:30:01.185Z,24.45
2023-02-01T04:32:30.310Z,25.10
2023-02-01T04:34:59.444Z,25.98
2023-02-01T04:37:29.799Z,26.33
2023-02-01T04:40:01.269Z,30.27
2023-02-01T04:42:30.753Z,28.88
2023-02-01T04:44:59.776Z,26.08
2023-02-01T04:47:34.098Z,25.75
2023-02-01T04:50:03.384Z,27.40
2023-02-01T04:52:32.464Z,29.30
2023-02-01T04:55:07.626Z,28.20
2023-02-01T04:57:41.806Z,29.98
2023-02-01T05:00:13.767Z,27.00
2023-02-01T05:02:42.880Z,27.30
2023-02-01T05:05:12.278Z,27.95
2023-02-01T05:07:41.579Z,29.50
2023-02-01T05:10:13.508Z,26.33
2023-02-01T05:12:55.584Z,29.85
2023-02-01T05:15:24.712Z,28.23
2023-02-01T05:17:53.782Z,31.10
2023-02-01T05:20:23.276Z,32.35
2023-02-01T05:22:52.875Z,32.33
2023-02-01T05:25:24.376Z,30.33
2023-02-01T05:27:53.580Z,32.08
2023-02-01T05:30:23.272Z,30.45
2023-02-01T05:32:53.601Z,25.85
2023-02-01T05:35:23.154Z,30.27
2023-02-01T05:37:52.171Z,29.63
2023-02-01T05:40:28.512Z,32.22
2023-02-01T05:42:57.606Z,34.40
2023-02-01T05:45:26.713Z,32.67
2023-02-01T05:48:01.952Z,29.60
2023-02-01T05:50:31.068Z,29.70
2023-02-01T05:53:00.982Z,32.45
2023-02-01T05:55:31.995Z,31.02
2023-02-01T05:58:08.891Z,33.15
2023-02-01T06:00:38.147Z,32.70
2023-02-01T06:03:08.055Z,31.83
2023-02-01T06:05:37.545Z,30.35
2023-02-01T06:08:13.021Z,31.25
2023-02-01T06:10:44.090Z,28.60
2023-02-01T06:13:15.940Z,30.97
2023-02-01T06:18:16.193Z,28.92
2023-02-01T06:20:50.529Z,31.15
2023-02-01T06:23:19.770Z,26.75
2023-02-01T06:25:50.860Z,30.77
2023-02-01T06:28:25.066Z,28.52
2023-02-01T06:30:54.425Z,28.80
2023-02-01T06:33:24.349Z,29.50
2023-02-01T06:36:01.610Z,28.67
2023-02-01T06:38:30.868Z,28.95
2023-02-01T06:41:02.909Z,29.48
2023-02-01T06:43:33.189Z,27.83
2023-02-01T06:46:03.672Z,27.40
2023-02-01T06:48:33.092Z,26.60
2023-02-01T06:51:02.197Z,27.83
2023-02-01T06:53:36.616Z,28.40
2023-02-01T06:56:13.323Z,29.63
2023-02-01T06:58:47.559Z,23.58
2023-02-01T07:01:17.033Z,24.92
2023-02-01T07:03:53.568Z,23.65
2023-02-01T07:06:22.757Z,25.67
2023-02-01T07:08:52.013Z,27.27
2023-02-01T07:11:28.199Z,26.13
2023-02-01T07:13:57.469Z,28.38
2023-02-01T07:16:26.703Z,27.67
2023-02-01T07:19:01.179Z,28.85
2023-02-01T07:21:30.736Z,23.00
2023-02-01T07:24:05.196Z,26.77
2023-02-01T07:26:36.245Z,25.98
2023-02-01T07:29:05.623Z,26.10
2023-02-01T07:31:34.781Z,26.50
2023-02-01T07:34:04.242Z,25.73
2023-02-01T07:36:34.917Z,24.98
2023-02-01T07:39:09.252Z,26.23
2023-02-01T07:41:41.182Z,29.20
2023-02-01T07:44:24.718Z,25.95
2023-02-01T07:46:54.008Z,23.38
2023-02-01T07:49:23.261Z,23.15
2023-02-01T07:51:52.880Z,22.38
2023-02-01T07:54:22.276Z,22.67
2023-02-01T07:56:58.711Z,24.48
2023-02-01T07:59:28.112Z,22.27
2023-02-01T08:01:55.244Z,24.35
2023-02-01T08:04:24.358Z,19.80
2023-02-01T08:06:53.440Z,21.27
2023-02-01T08:09:23.023Z,22.30
2023-02-01T08:11:52.146Z,21.40
2023-02-01T08:14:23.251Z,22.85
2023-02-01T08:16:52.529Z,23.27
2023-02-01T08:19:21.636Z,18.52
2023-02-01T08:21:50.962Z,21.23
2023-02-01T08:24:20.020Z,22.13
2023-02-01T08:26:49.773Z,21.40
2023-02-01T08:29:19.377Z,21.85
2023-02-01T08:31:51.275Z,21.23
2023-02-01T08:34:20.508Z,19.48
2023-02-01T08:36:49.645Z,18.38
2023-02-01T08:39:18.700Z,20.63
2023-02-01T08:42:09.404Z,20.35
2023-02-01T08:44:39.156Z,20.10
2023-02-01T08:47:10.215Z,18.65
2023-02-01T08:49:39.323Z,19.05
2023-02-01T08:52:15.760Z,21.15
2023-02-01T08:54:45.969Z,20.45
2023-02-01T08:57:15.426Z,20.38
2023-02-01T08:59:44.915Z,20.42
2023-02-01T09:02:19.508Z,21.75
2023-02-01T09:04:48.794Z,19.55
2023-02-01T09:07:18.326Z,24.83
2023-02-01T09:09:47.955Z,21.95
2023-02-01T09:12:17.907Z,23.27
2023-02-01T09:14:47.109Z,21.20
2023-02-01T09:17:16.429Z,24.17
2023-02-01T09:19:47.649Z,22.65
2023-02-01T09:24:57.926Z,21.67
2023-02-01T09:27:27.060Z,24.10
2023-02-01T09:29:56.299Z,25.10
2023-02-01T09:32:26.743Z,25.80
2023-02-01T09:34:57.881Z,25.73
2023-02-01T09:37:27.527Z,23.15
2023-02-01T09:39:56.685Z,26.10
2023-02-01T09:42:55.892Z,23.75
2023-02-01T09:45:34.011Z,22.92
2023-02-01T09:48:12.974Z,21.77
2023-02-01T09:50:48.461Z,22.85
2023-02-01T09:53:24.536Z,24.20
2023-02-01T09:55:57.373Z,20.98
2023-02-01T09:58:33.396Z,21.58
2023-02-01T10:01:05.772Z,21.50
2023-02-01T10:03:40.843Z,21.92
2023-02-01T10:06:30.257Z,21.65
2023-02-01T10:09:31.389Z,22.63
2023-02-01T10:12:30.809Z,22.67
2023-02-01T10:15:14.381Z,21.92
2023-02-01T10:17:57.272Z,24.02
2023-02-01T10:20:32.734Z,22.17
2023-02-01T10:23:31.513Z,21.55
2023-02-01T10:26:07.879Z,22.13
2023-02-01T10:28:46.634Z,21.25
2023-02-01T10:31:16.339Z,18.98
2023-02-01T10:33:49.620Z,21.40
2023-02-01T10:36:23.041Z,26.02
2023-02-01T10:38:54.272Z,20.92
2023-02-01T10:41:25.790Z,22.38
2023-02-01T10:43:57.881Z,20.83
2023-02-01T10:46:33.228Z,23.45
2023-02-01T10:49:07.035Z,23.67
2023-02-01T10:51:44.957Z,21.73
2023-02-01T10:54:21.041Z,20.75
2023-02-01T10:56:53.012Z,21.38
2023-02-01T11:01:59.522Z,23.63
2023-02-01T11:04:32.079Z,21.98
2023-02-01T11:07:10.231Z,25.17
2023-02-01T11:09:52.355Z,26.05
2023-02-01T11:12:30.915Z,27.65
2023-02-01T11:15:04.082Z,24.05
2023-02-01T11:17:43.313Z,24.13
2023-02-01T11:20:18.094Z,25.27
2023-02-01T11:23:01.070Z,26.85
2023-02-01T11:25:34.268Z,24.95
2023-02-01T11:28:04.471Z,28.70
2023-02-01T11:30:37.767Z,22.45
2023-02-01T11:33:17.980Z,22.17
2023-02-01T11:35:49.580Z,24.48
2023-02-01T11:38:30.765Z,24.67
2023-02-01T11:41:16.166Z,23.38
2023-02-01T11:43:57.048Z,24.48
2023-02-01T11:46:32.301Z,23.40
2023-02-01T11:49:27.497Z,25.20
2023-02-01T11:52:13.289Z,23.10
2023-02-01T11:54:59.978Z,23.33
2023-02-01T11:57:47.793Z,21.45
2023-02-01T12:00:47.209Z,20.23
2023-02-01T12:03:50.355Z,18.75
2023-02-01T12:06:31.590Z,22.33
2023-02-01T12:09:18.463Z,21.83
2023-02-01T12:11:56.777Z,23.80
2023-02-01T12:14:50.940Z,20.73
2023-02-01T12:17:45.286Z,20.50
2023-02-01T12:20:30.683Z,20.27
2023-02-01T12:23:23.929Z,19.80
2023-02-01T12:26:11.659Z,19.30
2023-02-01T12:29:11.729Z,20.92
2023-02-01T12:32:19.397Z,18.42
2023-02-01T12:35:04.747Z,17.80
2023-02-01T12:37:56.682Z,17.23
2023-02-01T12:40:44.413Z,16.27
2023-02-01T12:43:25.973Z,16.88
2023-02-01T12:45:59.999Z,18.23
2023-02-01T12:53:55.628Z,17.05
2023-02-01T12:56:29.436Z,16.58
2023-02-01T12:59:04.481Z,21.23
2023-02-01T13:01:38.374Z,19.60
2023-02-01T13:04:15.284Z,21.27
2023-02-01T13:06:55.257Z,21.35
2023-02-01T13:09:37.786Z,19.70
2023-02-01T13:12:13.245Z,21.45
2023-02-01T13:14:53.637Z,21.02
2023-02-01T13:20:06.376Z,24.85
2023-02-01T13:22:41.766Z,22.30
2023-02-01T13:25:17.811Z,21.25
2023-02-01T13:27:48.516Z,19.75
2023-02-01T13:30:24.118Z,19.63
2023-02-01T13:33:54.643Z,20.73
2023-02-01T13:36:42.295Z,19.60
2023-02-01T13:39:43.195Z,19.77
2023-02-01T13:42:21.708Z,20.92
2023-02-01T13:44:55.189Z,22.25
2023-02-01T13:47:33.145Z,20.83
2023-02-01T13:50:05.916Z,21.17
2023-02-01T13:52:47.513Z,20.15
2023-02-01T13:55:33.735Z,19.83
2023-02-01T13:58:22.564Z,18.65
2023-02-01T14:00:53.724Z,20.38
2023-02-01T14:03:51.873Z,19.88
2023-02-01T14:06:47.190Z,25.08
2023-02-01T14:09:22.205Z,20.17
2023-02-01T14:11:54.087Z,22.27
2023-02-01T14:14:50.953Z,20.23
2023-02-01T14:17:43.107Z,18.67
2023-02-01T14:21:01.962Z,18.98
2023-02-01T14:23:33.633Z,20.73
2023-02-01T14:26:20.532Z,21.77
2023-02-01T14:31:58.105Z,19.42
2023-02-01T14:34:38.283Z,19.42
2023-02-01T14:37:15.755Z,22.77
2023-02-01T14:40:03.823Z,20.25
2023-02-01T14:42:41.916Z,22.35
2023-02-01T14:45:43.975Z,19.35
2023-02-01T14:48:47.927Z,20.38
2023-02-01T14:51:32.055Z,18.40
2023-02-01T14:54:01.439Z,19.02
2023-02-01T14:56:31.011Z,21.02
2023-02-01T14:59:05.608Z,19.50
2023-02-01T15:01:38.265Z,18.55
2023-02-01T15:04:11.781Z,22.13
2023-02-01T15:06:45.308Z,20.83
2023-02-01T15:09:30.601Z,22.05
2023-02-01T15:12:02.523Z,21.75
2023-02-01T15:14:39.237Z,23.05
2023-02-01T15:17:22.082Z,21.80
2023-02-01T15:19:58.117Z,22.48
2023-02-01T15:22:35.464Z,24.13
2023-02-01T15:25:06.785Z,24.20
2023-02-01T15:27:36.429Z,23.55
2023-02-01T15:30:19.335Z,22.33
2023-02-01T15:32:48.873Z,25.73
2023-02-01T15:35:36.890Z,25.73
2023-02-01T15:38:24.503Z,22.55
2023-02-01T15:43:38.227Z,23.35
2023-02-01T15:46:15.406Z,25.20
2023-02-01T15:48:50.781Z,24.08
2023-02-01T15:51:23.345Z,24.17
2023-02-01T15:54:00.606Z,22.98
2023-02-01T15:56:33.050Z,21.80
2023-02-01T15:59:05.042Z,25.75
2023-02-01T16:04:19.951Z,24.00
2023-02-01T16:06:51.632Z,25.92
2023-02-01T16:09:24.986Z,27.52
2023-02-01T16:11:59.256Z,24.80
2023-02-01T16:14:29.214Z,28.63
2023-02-01T16:17:05.839Z,27.83
2023-02-01T16:19:35.415Z,25.98
2023-02-01T16:22:04.753Z,27.17
2023-02-01T16:24:40.861Z,28.00
2023-02-01T16:27:09.980Z,27.80
2023-02-01T16:29:39.757Z,28.95
2023-02-01T16:32:15.630Z,29.20
2023-02-01T16:34:50.718Z,27.55
2023-02-01T16:37:23.902Z,29.98
2023-02-01T16:39:55.059Z,31.42
2023-02-01T16:42:31.555Z,30.17
2023-02-01T16:45:06.540Z,29.40
2023-02-01T16:47:36.906Z,29.10
2023-02-01T16:50:17.496Z,29.75
2023-02-01T16:52:51.824Z,30.08
2023-02-01T16:55:29.770Z,28.90
2023-02-01T16:57:59.286Z,28.70
2023-02-01T17:00:31.563Z,30.90
2023-02-01T17:03:01.251Z,27.90
2023-02-01T17:05:36.894Z,28.17
2023-02-01T17:08:10.706Z,30.50
2023-02-01T17:10:41.918Z,28.67
2023-02-01T17:13:15.782Z,29.83
2023-02-01T17:15:56.333Z,31.35
2023-02-01T17:18:25.995Z,27.55
2023-02-01T17:20:55.174Z,28.40
2023-02-01T17:23:24.531Z,35.92
2023-02-01T17:25:55.659Z,28.40
2023-02-01T17:28:28.742Z,31.20
2023-02-01T17:33:39.494Z,29.90
2023-02-01T17:36:09.451Z,26.83
2023-02-01T17:38:41.023Z,27.48
2023-02-01T17:41:15.208Z,28.52
2023-02-01T17:43:50.440Z,27.40
2023-02-01T17:46:20.719Z,27.30
2023-02-01T17:48:49.961Z,25.27
2023-02-01T17:51:20.607Z,27.00
2023-02-01T17:53:55.139Z,29.45
2023-02-01T17:56:27.655Z,26.17
2023-02-01T17:58:58.234Z,28.17
2023-02-01T18:01:29.517Z,26.67
2023-02-01T18:04:03.956Z,26.95
2023-02-01T18:06:41.827Z,26.70
2023-02-01T18:09:11.165Z,25.40
2023-02-01T18:11:42.360Z,24.02
2023-02-01T18:14:16.741Z,25.73
2023-02-01T18:16:45.885Z,25.17
2023-02-01T18:19:16.256Z,25.50
2023-02-01T18:21:46.816Z,23.40
2023-02-01T18:24:18.248Z,23.23
2023-02-01T18:26:59.534Z,25.27
2023-02-01T18:29:28.857Z,25.00
2023-02-01T18:31:58.460Z,23.05
2023-02-01T18:34:32.695Z,24.30
2023-02-01T18:37:02.286Z,25.25
2023-02-01T18:39:31.493Z,25.48
2023-02-01T18:42:02.660Z,25.13
2023-02-01T18:44:34.812Z,27.08
2023-02-01T18:47:04.177Z,28.65
2023-02-01T18:49:33.283Z,23.02
2023-02-01T18:52:02.530Z,24.63
2023-02-01T18:54:32.014Z,23.83
2023-02-01T18:57:09.031Z,25.17
2023-02-01T18:59:43.332Z,21.05
2023-02-01T19:02:14.687Z,22.52
2023-02-01T19:04:44.368Z,21.80
2023-02-01T19:07:18.769Z,20.10
2023-02-01T19:09:48.281Z,22.65
2023-02-01T19:12:20.009Z,22.23
2023-02-01T19:14:54.314Z,24.80
2023-02-01T19:17:24.043Z,23.98
2023-02-01T19:19:53.717Z,23.90
2023-02-01T19:22:22.977Z,23.80
2023-02-01T19:24:54.470Z,23.25
2023-02-01T19:30:13.725Z,24.27
2023-02-01T19:32:48.089Z,23.45
2023-02-01T19:35:25.347Z,22.67
2023-02-01T19:38:01.255Z,28.90
2023-02-01T19:40:30.757Z,25.67
2023-02-01T19:45:43.087Z,24.90
2023-02-01T19:48:12.814Z,24.33
2023-02-01T19:50:42.404Z,25.55
2023-02-01T19:53:12.022Z,24.15
2023-02-01T19:55:45.507Z,25.60
2023-02-01T19:58:16.792Z,25.67
2023-02-01T20:00:45.273Z,23.77
2023-02-01T20:03:14.392Z,24.60
2023-02-01T20:05:43.688Z,25.10
2023-02-01T20:10:48.204Z,23.70
2023-02-01T20:13:20.042Z,24.48
2023-02-01T20:18:18.173Z,27.90
2023-02-01T20:20:47.407Z,25.17
2023-02-01T20:23:18.230Z,26.17
2023-02-01T20:25:48.249Z,27.20
2023-02-01T20:28:24.491Z,24.95
2023-02-01T20:30:54.629Z,29.17
2023-02-01T20:33:25.286Z,24.65
2023-02-01T20:35:54.476Z,29.23
2023-02-01T20:38:23.651Z,28.05
2023-02-01T20:40:52.899Z,27.13
2023-02-01T20:43:23.895Z,28.30
2023-02-01T20:45:58.402Z,28.95
2023-02-01T20:48:28.788Z,26.42
2023-02-01T20:50:58.553Z,29.58
2023-02-01T20:53:28.290Z,30.88
2023-02-01T20:55:59.106Z,29.48
2023-02-01T20:58:31.326Z,31.53
2023-02-01T21:01:00.622Z,29.83
2023-02-01T21:03:30.248Z,26.08
2023-02-01T21:06:01.182Z,29.67
2023-02-01T21:08:35.931Z,30.00
2023-02-01T21:11:07.537Z,30.15
2023-02-01T21:13:43.546Z,28.40
2023-02-01T21:16:15.342Z,28.13
2023-02-01T21:18:44.545Z,29.00
2023-02-01T21:21:18.405Z,30.27
2023-02-01T21:23:48.378Z,30.20
2023-02-01T21:26:21.315Z,27.30
2023-02-01T21:28:54.086Z,26.55
2023-02-01T21:31:25.361Z,27.52
2023-02-01T21:33:54.816Z,25.58
2023-02-01T21:36:24.648Z,29.55
2023-02-01T21:39:01.167Z,27.17
2023-02-01T21:41:48.456Z,27.42
2023-02-01T21:44:19.970Z,27.52
2023-02-01T21:46:49.357Z,29.40
2023-02-01T21:49:18.487Z,22.95
2023-02-01T21:51:50.095Z,28.50
2023-02-01T21:54:23.596Z,25.40
2023-02-01T21:56:52.839Z,25.83
2023-02-01T21:59:23.941Z,25.88
2023-02-01T22:04:27.693Z,26.50
2023-02-01T22:06:56.823Z,27.65
2023-02-01T22:09:31.075Z,26.83
2023-02-01T22:12:00.152Z,25.52
2023-02-01T22:14:33.237Z,24.98
2023-02-01T22:17:02.529Z,26.85
2023-02-01T22:19:42.006Z,25.48
2023-02-01T22:22:12.557Z,22.58
2023-02-01T22:24:41.667Z,27.05
2023-02-01T22:27:14.391Z,25.92
2023-02-01T22:29:58.234Z,25.50
2023-02-01T22:32:27.410Z,23.55
2023-02-01T22:34:59.148Z,25.58
2023-02-01T22:37:28.458Z,24.58
2023-02-01T22:39:57.763Z,25.13
2023-02-01T22:42:27.097Z,25.92
2023-02-01T22:45:04.138Z,23.75
2023-02-01T22:47:33.586Z,23.63
2023-02-01T22:50:02.767Z,24.55
2023-02-01T22:52:37.125Z,26.23
2023-02-01T22:55:07.083Z,24.77
2023-02-01T22:57:36.221Z,23.40
2023-02-01T23:00:10.053Z,26.75
2023-02-01T23:02:39.453Z,25.35
2023-02-01T23:05:09.094Z,25.33
2023-02-01T23:07:38.225Z,25.98
2023-02-01T23:10:16.285Z,24.85
2023-02-01T23:15:22.966Z,25.20
2023-02-01T23:17:52.382Z,28.40
2023-02-01T23:20:27.731Z,27.08
2023-02-01T23:22:57.107Z,26.50
2023-02-01T23:25:26.748Z,27.02
2023-02-01T23:28:01.817Z,28.45
2023-02-01T23:30:33.057Z,26.80
2023-02-01T23:33:02.318Z,27.40
2023-02-01T23:35:31.410Z,27.08
2023-02-01T23:38:00.483Z,29.42
2023-02-01T23:40:29.646Z,26.65
2023-02-01T23:43:11.576Z,26.58
2023-02-01T23:45:47.677Z,25.52
2023-02-01T23:48:16.980Z,25.92
2023-02-01T23:50:46.083Z,26.02
2023-02-01T23:53:15.225Z,26.20
2023-02-01T23:55:49.233Z,28.70
2023-02-01T23:58:18.385Z,25.83
